Time;durP1;ratioP1;P1;durP2;ratioP2;P2;SDS_P1;SDS_P2;PMS_P1;PMS_P2;Temp;Humidity;BMP_temperature;BMP_pressure;BME280_temperature;BME280_humidity;BME280_pressure;Samples;Min_cycle;Max_cycle;Signal;HPM_P1;HPM_P2
2023/04/05 00:00:09;;;;;;;;;;;;;;;;;;350167;28;790;-66
2023/04/05 00:00:19;;;;;;;;;;;;;;;;;;350093;28;874;-63
2023/04/05 00:00:31;;;;;;;;;;;;;;;;;;350093;28;519;-67
2023/04/05 00:00:42;;;;;;;;;;;;;;;;;;350097;28;823;-70
2023/04/05 00:00:53;;;;;;;;;;;;;;;;;;350078;28;1036;-68
2023/04/05 00:01:06;;;;;;;;;;;;;;;;;;350049;28;929;-67
2023/04/05 00:01:18;;;;;;;;;;;;;;;;;;351431;28;862;-67
2023/04/05 00:01:29;;;;;;;;;;;;;;;;;;351366;28;881;-70
2023/04/05 00:02:09;;;;;;;;;;;;;;;;;;351448;28;933;-67
2023/04/05 00:02:20;;;;;;;;;;;;;;;;;;349943;28;894;-61
2023/04/05 00:02:30;;;;;;;;;;;;;;;;;;350049;28;861;-61
2023/04/05 00:02:41;;;;;;;;;;;;;;;;;;349960;28;961;-64
2023/04/05 00:02:51;;;;;;;;;;;;;;;;;;350086;28;861;-63
2023/04/05 00:03:02;;;;;;;;;;;;;;;;;;350071;28;901;-63
2023/04/05 00:03:13;;;;;;;;;;;;;;;;;;349390;28;838;-66
2023/04/05 00:03:24;;;;;;;;;;;;;;;;;;348659;28;921;-68
2023/04/05 00:03:35;;;;;;;;;;;;;;;;;;348611;28;818;-69
2023/04/05 00:03:46;;;;;;;;;;;;;;;;;;348596;28;810;-66
2023/04/05 00:03:57;;;;;;;;;;;;;;;;;;348637;28;917;-64
2023/04/05 00:04:08;;;;;;;;;;;;;;;;;;348663;28;988;-66
2023/04/05 00:04:19;;;;;;;;;;;;;;;;;;349808;28;901;-66
2023/04/05 00:04:33;;;;;;;;;;;;;;;;;;350129;28;992;-64
2023/04/05 00:04:50;;;;;;;;;;;;;;;;;;350064;28;941;-64
2023/04/05 00:05:02;;;;;;;;;;;;;;;;;;350128;28;878;-62
2023/04/05 00:05:12;;;;;;;;;;;;;;;;;;350129;28;987;-63
2023/04/05 00:05:29;;;;;;;;;;;;;;;;;;351409;28;905;-63
2023/04/05 00:05:39;;;;;;;;;;;;;;;;;;351437;28;984;-66
2023/04/05 00:05:50;;;;;;;;;;;;;;;;;;351351;28;981;-66
2023/04/05 00:06:01;;;;;;;;;;;;;;;;;;351429;28;921;-69
2023/04/05 00:06:12;;;;;;;;;;;;;;;;;;351416;28;847;-69
2023/04/05 00:06:27;;;;;;;;;;;;;;;;;;351435;28;981;-65
2023/04/05 00:06:54;;;;;;;;;;;;;;;;;;351433;28;897;-69
2023/04/05 00:07:07;;;;;;;;;;;;;;;;;;351430;28;504;-67
2023/04/05 00:07:18;;;;;;;;;;;;;;;;;;350977;28;995;-63
2023/04/05 00:07:28;;;;;;;;;;;;;;;;;;350089;28;1002;-64
2023/04/05 00:07:39;;;;;;;;;;;;;;;;;;350140;28;921;-63
2023/04/05 00:07:53;;;;;;;;;;;;;;;;;;350113;28;881;-68
2023/04/05 00:08:07;;;;;;;;;;;;;;;;;;350012;28;989;-64
2023/04/05 00:08:22;;;;;;;;;;;;;;;;;;350165;28;893;-68
2023/04/05 00:08:32;;;;;;;;;;;;;;;;;;350071;28;815;-67
2023/04/05 00:08:48;;;;;;;;;;;;;;;;;;350114;28;795;-70
2023/04/05 00:09:00;;;;;;;;;;;;;;;;;;350084;28;849;-65
2023/04/05 00:09:10;;;;;;;;;;;;;;;;;;350067;28;925;-65
2023/04/05 00:09:21;;;;;;;;;;;;;;;;;;350137;28;985;-65
2023/04/05 00:09:31;;;;;;;;;;;;;;;;;;350051;28;969;-64
2023/04/05 00:09:42;;;;;;;;;;;;;;;;;;350107;28;846;-62
2023/04/05 00:09:52;;;;;;;;;;;;;;;;;;350101;28;1115;-66
2023/04/05 00:10:03;;;;;;;;;;;;;;;;;;350144;28;810;-63
2023/04/05 00:10:13;;;;;;;;;;;;;;;;;;350085;28;973;-62
2023/04/05 00:10:24;;;;;;;;;;;;;;;;;;350096;28;988;-61
2023/04/05 00:10:35;;;;;;;;;;;;;;;;;;350073;28;902;-67
2023/04/05 00:10:45;;;;;;;;;;;;;;;;;;350104;28;841;-62
2023/04/05 00:10:56;;;;;;;;;;;;;;;;;;350122;28;889;-63
2023/04/05 00:11:06;;;;;;;;;;;;;;;;;;350090;28;958;-66
2023/04/05 00:11:16;;;;;;;;;;;;;;;;;;350075;28;925;-62
2023/04/05 00:11:28;;;;;;;;;;;;;;;;;;350112;28;1290;-64
2023/04/05 00:11:39;;;;;;;;;;;;;;;;;;350126;28;810;-66
2023/04/05 00:11:49;;;;;;;;;;;;;;;;;;350122;28;921;-64
2023/04/05 00:12:00;;;;;;;;;;;;;;;;;;350133;28;874;-62
2023/04/05 00:12:10;;;;;;;;;;;;;;;;;;350141;28;914;-65
2023/04/05 00:12:21;;;;;;;;;;;;;;;;;;350073;28;988;-68
2023/04/05 00:12:31;;;;;;;;;;;;;;;;;;350128;28;1168;-66
2023/04/05 00:12:42;;;;;;;;;;;;;;;;;;350085;28;885;-66
2023/04/05 00:12:52;;;;;;;;;;;;;;;;;;350096;28;877;-66
2023/04/05 00:13:02;;;;;;;;;;;;;;;;;;350083;28;913;-67
2023/04/05 00:13:13;;;;;;;;;;;;;;;;;;350121;28;949;-64
2023/04/05 00:13:24;;;;;;;;;;;;;;;;;;350086;28;965;-63
2023/04/05 00:13:34;;;;;;;;;;;;;;;;;;350067;28;905;-69
2023/04/05 00:13:45;;;;;;;;;;;;;;;;;;350114;28;909;-69
2023/04/05 00:13:56;;;;;;;;;;;;;;;;;;350119;28;965;-69
2023/04/05 00:14:06;;;;;;;;;;;;;;;;;;350047;28;889;-68
2023/04/05 00:14:16;;;;;;;;;;;;;;;;;;350089;28;790;-70
2023/04/05 00:14:27;;;;;;;;;;;;;;;;;;350160;28;853;-70
2023/04/05 00:14:37;;;;;;;;;;;;;;;;;;350054;28;815;-66
2023/04/05 00:14:47;;;;;;;;;;;;;;;;;;348571;28;890;-66
2023/04/05 00:14:58;;;;;;;;;;;;;;;;;;348611;28;1048;-64
2023/04/05 00:15:08;;;;;;;;;;;;;;;;;;347268;28;1044;-68
2023/04/05 00:15:21;;;;;;;;;;;;;;;;;;347277;28;909;-65
2023/04/05 00:15:32;;;;;;;;;;;;;;;;;;347281;28;823;-64
2023/04/05 00:16:08;;;;;;;;;;;;;;;;;;347191;28;1967;-66
2023/04/05 00:16:19;;;;;;;;;;;;;;;;;;347153;28;1223;-66
2023/04/05 00:16:30;;;;;;;;;;;;;;;;;;347238;28;837;-64
2023/04/05 00:16:40;;;;;;;;;;;;;;;;;;347372;28;961;-68
2023/04/05 00:16:51;;;;;;;;;;;;;;;;;;348498;28;952;-66
2023/04/05 00:17:01;;;;;;;;;;;;;;;;;;348616;28;850;-64
2023/04/05 00:17:12;;;;;;;;;;;;;;;;;;348612;28;925;-67
2023/04/05 00:17:22;;;;;;;;;;;;;;;;;;348662;28;1158;-66
2023/04/05 00:17:34;;;;;;;;;;;;;;;;;;348663;28;822;-65
2023/04/05 00:17:44;;;;;;;;;;;;;;;;;;348664;28;822;-65
2023/04/05 00:17:55;;;;;;;;;;;;;;;;;;348565;28;913;-64
2023/04/05 00:18:05;;;;;;;;;;;;;;;;;;348611;28;834;-64
2023/04/05 00:18:22;;;;;;;;;;;;;;;;;;349468;28;849;-63
2023/04/05 00:18:33;;;;;;;;;;;;;;;;;;350119;28;989;-68
2023/04/05 00:18:50;;;;;;;;;;;;;;;;;;350115;28;1035;-68
2023/04/05 00:19:00;;;;;;;;;;;;;;;;;;350027;28;783;-63
2023/04/05 00:19:14;;;;;;;;;;;;;;;;;;350155;28;1036;-65
2023/04/05 00:19:24;;;;;;;;;;;;;;;;;;350167;28;795;-67
2023/04/05 00:19:36;;;;;;;;;;;;;;;;;;350099;28;829;-66
2023/04/05 00:19:50;;;;;;;;;;;;;;;;;;350080;28;1011;-64
2023/04/05 00:20:01;;;;;;;;;;;;;;;;;;350061;28;992;-66
2023/04/05 00:20:11;;;;;;;;;;;;;;;;;;350104;28;976;-67
2023/04/05 00:20:22;;;;;;;;;;;;;;;;;;350127;28;913;-69
2023/04/05 00:20:36;;;;;;;;;;;;;;;;;;350044;28;933;-65
2023/04/05 00:20:50;;;;;;;;;;;;;;;;;;350100;28;996;-67
2023/04/05 00:21:00;;;;;;;;;;;;;;;;;;350112;28;988;-64
2023/04/05 00:21:13;;;;;;;;;;;;;;;;;;350044;28;965;-67
2023/04/05 00:21:23;;;;;;;;;;;;;;;;;;351427;28;814;-63
2023/04/05 00:21:34;;;;;;;;;;;;;;;;;;351449;28;818;-65
2023/04/05 00:21:45;;;;;;;;;;;;;;;;;;350039;28;936;-67
2023/04/05 00:21:56;;;;;;;;;;;;;;;;;;350014;28;885;-65
2023/04/05 00:22:09;;;;;;;;;;;;;;;;;;349928;28;1013;-68
2023/04/05 00:22:24;;;;;;;;;;;;;;;;;;350046;28;1040;-65
2023/04/05 00:22:35;;;;;;;;;;;;;;;;;;350013;28;885;-67
2023/04/05 00:22:49;;;;;;;;;;;;;;;;;;349961;28;913;-63
2023/04/05 00:22:59;;;;;;;;;;;;;;;;;;349981;28;867;-70
2023/04/05 00:23:10;;;;;;;;;;;;;;;;;;349992;28;858;-68
2023/04/05 00:23:21;;;;;;;;;;;;;;;;;;348873;28;802;-69
2023/04/05 00:23:37;;;;;;;;;;;;;;;;;;348587;28;1089;-64
2023/04/05 00:23:50;;;;;;;;;;;;;;;;;;350098;28;980;-66
2023/04/05 00:24:00;;;;;;;;;;;;;;;;;;351408;28;1056;-62
2023/04/05 00:24:37;;;;;;;;;;;;;;;;;;351412;28;909;-65
2023/04/05 00:24:48;;;;;;;;;;;;;;;;;;351406;28;948;-67
2023/04/05 00:24:58;;;;;;;;;;;;;;;;;;349981;28;925;-66
2023/04/05 00:25:09;;;;;;;;;;;;;;;;;;350021;28;985;-69
2023/04/05 00:25:35;;;;;;;;;;;;;;;;;;350047;28;787;-66
2023/04/05 00:25:45;;;;;;;;;;;;;;;;;;349973;28;557;-68
2023/04/05 00:25:56;;;;;;;;;;;;;;;;;;349378;28;822;-66
2023/04/05 00:26:06;;;;;;;;;;;;;;;;;;348615;28;893;-66
2023/04/05 00:26:17;;;;;;;;;;;;;;;;;;348609;28;897;-68
2023/04/05 00:26:28;;;;;;;;;;;;;;;;;;348634;28;807;-69
2023/04/05 00:26:38;;;;;;;;;;;;;;;;;;348578;28;512;-65
2023/04/05 00:27:14;;;;;;;;;;;;;;;;;;351394;28;1020;-68
2023/04/05 00:27:25;;;;;;;;;;;;;;;;;;351429;28;1015;-68
2023/04/05 00:27:35;;;;;;;;;;;;;;;;;;351268;28;893;-68
2023/04/05 00:27:45;;;;;;;;;;;;;;;;;;349978;28;944;-67
2023/04/05 00:27:56;;;;;;;;;;;;;;;;;;349953;28;901;-67
2023/04/05 00:28:06;;;;;;;;;;;;;;;;;;350055;28;877;-65
2023/04/05 00:28:17;;;;;;;;;;;;;;;;;;349990;28;1051;-66
2023/04/05 00:28:27;;;;;;;;;;;;;;;;;;349924;28;988;-65
2023/04/05 00:28:37;;;;;;;;;;;;;;;;;;348611;28;798;-64
2023/04/05 00:28:48;;;;;;;;;;;;;;;;;;346026;28;834;-62
2023/04/05 00:28:58;;;;;;;;;;;;;;;;;;345783;28;961;-64
2023/04/05 00:29:09;;;;;;;;;;;;;;;;;;345871;28;831;-65
2023/04/05 00:29:19;;;;;;;;;;;;;;;;;;345807;28;977;-67
2023/04/05 00:29:30;;;;;;;;;;;;;;;;;;347235;28;874;-68
2023/04/05 00:29:40;;;;;;;;;;;;;;;;;;347762;28;849;-65
2023/04/05 00:29:50;;;;;;;;;;;;;;;;;;348610;28;965;-63
2023/04/05 00:30:01;;;;;;;;;;;;;;;;;;348613;28;973;-66
2023/04/05 00:30:12;;;;;;;;;;;;;;;;;;347258;28;918;-61
2023/04/05 00:30:22;;;;;;;;;;;;;;;;;;347271;28;885;-66
2023/04/05 00:30:58;;;;;;;;;;;;;;;;;;349955;28;873;-62
2023/04/05 00:31:09;;;;;;;;;;;;;;;;;;349918;28;948;-63
2023/04/05 00:31:19;;;;;;;;;;;;;;;;;;349980;28;985;-63
2023/04/05 00:31:30;;;;;;;;;;;;;;;;;;348802;28;822;-61
2023/04/05 00:31:40;;;;;;;;;;;;;;;;;;348643;28;866;-64
2023/04/05 00:31:50;;;;;;;;;;;;;;;;;;348603;28;929;-63
2023/04/05 00:32:01;;;;;;;;;;;;;;;;;;348575;28;953;-63
2023/04/05 00:32:11;;;;;;;;;;;;;;;;;;349946;28;992;-67
2023/04/05 00:32:22;;;;;;;;;;;;;;;;;;350023;28;1036;-66
2023/04/05 00:32:32;;;;;;;;;;;;;;;;;;350137;28;806;-67
2023/04/05 00:32:43;;;;;;;;;;;;;;;;;;350038;28;1016;-63
2023/04/05 00:32:54;;;;;;;;;;;;;;;;;;350083;28;980;-66
2023/04/05 00:33:04;;;;;;;;;;;;;;;;;;350062;28;929;-68
2023/04/05 00:33:15;;;;;;;;;;;;;;;;;;350066;28;905;-68
2023/04/05 00:33:25;;;;;;;;;;;;;;;;;;350042;28;968;-67
2023/04/05 00:33:35;;;;;;;;;;;;;;;;;;349973;28;968;-67
2023/04/05 00:33:46;;;;;;;;;;;;;;;;;;350093;28;960;-67
2023/04/05 00:33:56;;;;;;;;;;;;;;;;;;350061;28;980;-66
2023/04/05 00:34:08;;;;;;;;;;;;;;;;;;350072;28;877;-64
2023/04/05 00:34:18;;;;;;;;;;;;;;;;;;350059;28;983;-70
2023/04/05 00:34:28;;;;;;;;;;;;;;;;;;350064;28;775;-68
2023/04/05 00:34:39;;;;;;;;;;;;;;;;;;350048;28;905;-68
2023/04/05 00:34:49;;;;;;;;;;;;;;;;;;350119;28;806;-69
2023/04/05 00:35:00;;;;;;;;;;;;;;;;;;350034;28;944;-67
2023/04/05 00:35:10;;;;;;;;;;;;;;;;;;350076;28;810;-69
2023/04/05 00:35:21;;;;;;;;;;;;;;;;;;349954;28;963;-70
2023/04/05 00:35:31;;;;;;;;;;;;;;;;;;350057;28;961;-69
2023/04/05 00:35:41;;;;;;;;;;;;;;;;;;350085;28;858;-66
2023/04/05 00:35:52;;;;;;;;;;;;;;;;;;350085;28;857;-70
2023/04/05 00:36:15;;;;;;;;;;;;;;;;;;350059;28;996;-67
2023/04/05 00:36:26;;;;;;;;;;;;;;;;;;350006;28;983;-66
2023/04/05 00:36:36;;;;;;;;;;;;;;;;;;350078;28;1016;-63
2023/04/05 00:37:13;;;;;;;;;;;;;;;;;;350107;28;1020;-64
2023/04/05 00:37:24;;;;;;;;;;;;;;;;;;351237;28;992;-63
2023/04/05 00:37:34;;;;;;;;;;;;;;;;;;351383;28;936;-67
2023/04/05 00:37:45;;;;;;;;;;;;;;;;;;349932;28;873;-67
2023/04/05 00:37:56;;;;;;;;;;;;;;;;;;349995;28;790;-64
2023/04/05 00:38:06;;;;;;;;;;;;;;;;;;349960;28;914;-70
2023/04/05 00:38:16;;;;;;;;;;;;;;;;;;350002;28;913;-67
2023/04/05 00:38:27;;;;;;;;;;;;;;;;;;349973;28;983;-67
2023/04/05 00:38:38;;;;;;;;;;;;;;;;;;349954;28;834;-66
2023/04/05 00:38:48;;;;;;;;;;;;;;;;;;350021;28;815;-64
2023/04/05 00:38:59;;;;;;;;;;;;;;;;;;349991;28;834;-66
2023/04/05 00:39:09;;;;;;;;;;;;;;;;;;349988;28;1017;-66
2023/04/05 00:39:20;;;;;;;;;;;;;;;;;;349341;28;861;-67
2023/04/05 00:39:30;;;;;;;;;;;;;;;;;;348586;28;822;-66
2023/04/05 00:39:41;;;;;;;;;;;;;;;;;;348577;28;866;-64
2023/04/05 00:39:52;;;;;;;;;;;;;;;;;;348578;28;877;-67
2023/04/05 00:40:03;;;;;;;;;;;;;;;;;;348626;28;826;-67
2023/04/05 00:40:14;;;;;;;;;;;;;;;;;;348554;28;868;-70
2023/04/05 00:40:36;;;;;;;;;;;;;;;;;;349544;28;913;-70
2023/04/05 00:40:47;;;;;;;;;;;;;;;;;;350027;28;924;-67
2023/04/05 00:40:57;;;;;;;;;;;;;;;;;;350002;28;1015;-65
2023/04/05 00:41:08;;;;;;;;;;;;;;;;;;350085;28;818;-66
2023/04/05 00:41:18;;;;;;;;;;;;;;;;;;351260;28;651;-66
2023/04/05 00:41:29;;;;;;;;;;;;;;;;;;351371;28;984;-63
2023/04/05 00:41:39;;;;;;;;;;;;;;;;;;351335;28;897;-63
2023/04/05 00:41:50;;;;;;;;;;;;;;;;;;351366;28;1011;-62
2023/04/05 00:42:03;;;;;;;;;;;;;;;;;;351398;28;810;-64
2023/04/05 00:42:14;;;;;;;;;;;;;;;;;;351380;28;1052;-68
2023/04/05 00:42:24;;;;;;;;;;;;;;;;;;351355;28;763;-70
2023/04/05 00:42:35;;;;;;;;;;;;;;;;;;351296;28;899;-67
2023/04/05 00:42:45;;;;;;;;;;;;;;;;;;351301;28;1043;-68
2023/04/05 00:42:55;;;;;;;;;;;;;;;;;;351339;28;1336;-66
2023/04/05 00:43:06;;;;;;;;;;;;;;;;;;351360;28;803;-65
2023/04/05 00:43:16;;;;;;;;;;;;;;;;;;350520;28;826;-69
2023/04/05 00:43:26;;;;;;;;;;;;;;;;;;350058;28;1012;-65
2023/04/05 00:43:37;;;;;;;;;;;;;;;;;;350102;28;909;-69
2023/04/05 00:44:14;;;;;;;;;;;;;;;;;;350060;28;1023;-68
2023/04/05 00:44:25;;;;;;;;;;;;;;;;;;350088;28;1024;-68
2023/04/05 00:45:01;;;;;;;;;;;;;;;;;;350042;28;980;-68
2023/04/05 00:45:12;;;;;;;;;;;;;;;;;;349940;28;881;-67
2023/04/05 00:45:23;;;;;;;;;;;;;;;;;;349951;28;961;-67
2023/04/05 00:45:33;;;;;;;;;;;;;;;;;;350019;28;968;-62
2023/04/05 00:45:43;;;;;;;;;;;;;;;;;;349960;28;972;-68
2023/04/05 00:45:55;;;;;;;;;;;;;;;;;;350040;28;813;-65
2023/04/05 00:46:06;;;;;;;;;;;;;;;;;;349961;28;731;-64
2023/04/05 00:46:16;;;;;;;;;;;;;;;;;;349912;28;849;-68
2023/04/05 00:46:27;;;;;;;;;;;;;;;;;;349958;28;793;-61
2023/04/05 00:46:37;;;;;;;;;;;;;;;;;;349971;28;817;-64
2023/04/05 00:46:48;;;;;;;;;;;;;;;;;;350026;28;1019;-64
2023/04/05 00:46:58;;;;;;;;;;;;;;;;;;349926;28;1035;-63
2023/04/05 00:47:09;;;;;;;;;;;;;;;;;;349938;28;1015;-62
2023/04/05 00:47:20;;;;;;;;;;;;;;;;;;350096;28;521;-62
2023/04/05 00:47:30;;;;;;;;;;;;;;;;;;350038;28;865;-64
2023/04/05 00:47:41;;;;;;;;;;;;;;;;;;350078;28;984;-68
2023/04/05 00:47:51;;;;;;;;;;;;;;;;;;350099;28;814;-67
2023/04/05 00:48:02;;;;;;;;;;;;;;;;;;350031;28;1129;-69
2023/04/05 00:48:12;;;;;;;;;;;;;;;;;;350035;28;992;-69
2023/04/05 00:48:23;;;;;;;;;;;;;;;;;;351360;28;1024;-69
2023/04/05 00:48:33;;;;;;;;;;;;;;;;;;351339;28;809;-66
2023/04/05 00:48:44;;;;;;;;;;;;;;;;;;351327;28;1141;-62
2023/04/05 00:48:55;;;;;;;;;;;;;;;;;;351349;28;864;-63
2023/04/05 00:49:05;;;;;;;;;;;;;;;;;;351341;28;794;-67
2023/04/05 00:49:16;;;;;;;;;;;;;;;;;;351362;28;963;-68
2023/04/05 00:49:27;;;;;;;;;;;;;;;;;;351331;28;924;-70
2023/04/05 00:49:38;;;;;;;;;;;;;;;;;;351361;28;984;-68
2023/04/05 00:49:48;;;;;;;;;;;;;;;;;;351367;28;979;-70
2023/04/05 00:49:59;;;;;;;;;;;;;;;;;;351361;28;809;-65
2023/04/05 00:50:12;;;;;;;;;;;;;;;;;;351398;28;797;-66
2023/04/05 00:50:23;;;;;;;;;;;;;;;;;;350226;28;845;-66
2023/04/05 00:50:33;;;;;;;;;;;;;;;;;;349985;28;1019;-67
2023/04/05 00:50:46;;;;;;;;;;;;;;;;;;350016;28;877;-66
2023/04/05 00:50:59;;;;;;;;;;;;;;;;;;351219;28;636;-67
2023/04/05 00:51:10;;;;;;;;;;;;;;;;;;351380;28;888;-67
2023/04/05 00:51:22;;;;;;;;;;;;;;;;;;351372;28;1107;-69
2023/04/05 00:51:33;;;;;;;;;;;;;;;;;;351355;28;920;-70
2023/04/05 00:51:44;;;;;;;;;;;;;;;;;;351299;28;988;-69
2023/04/05 00:51:55;;;;;;;;;;;;;;;;;;351363;28;916;-65
2023/04/05 00:52:06;;;;;;;;;;;;;;;;;;351362;28;908;-66
2023/04/05 00:52:18;;;;;;;;;;;;;;;;;;351394;28;825;-63
2023/04/05 00:52:29;;;;;;;;;;;;;;;;;;351336;28;794;-64
2023/04/05 00:52:40;;;;;;;;;;;;;;;;;;351343;28;928;-68
2023/04/05 00:52:50;;;;;;;;;;;;;;;;;;349837;28;632;-69
2023/04/05 00:53:01;;;;;;;;;;;;;;;;;;348553;28;937;-70
2023/04/05 00:53:11;;;;;;;;;;;;;;;;;;348621;28;968;-70
2023/04/05 00:53:22;;;;;;;;;;;;;;;;;;348587;28;829;-70
2023/04/05 00:53:32;;;;;;;;;;;;;;;;;;348581;28;841;-69
2023/04/05 00:53:46;;;;;;;;;;;;;;;;;;348548;28;1012;-67
2023/04/05 00:53:57;;;;;;;;;;;;;;;;;;349845;28;713;-70
2023/04/05 00:54:08;;;;;;;;;;;;;;;;;;349982;28;924;-69
2023/04/05 00:54:34;;;;;;;;;;;;;;;;;;349955;28;949;-66
2023/04/05 00:54:45;;;;;;;;;;;;;;;;;;350350;28;1035;-66
2023/04/05 00:54:55;;;;;;;;;;;;;;;;;;351313;28;955;-68
2023/04/05 00:55:06;;;;;;;;;;;;;;;;;;351333;28;865;-69
2023/04/05 00:55:17;;;;;;;;;;;;;;;;;;351380;28;837;-69
2023/04/05 00:55:28;;;;;;;;;;;;;;;;;;351354;28;830;-70
2023/04/05 00:55:39;;;;;;;;;;;;;;;;;;351364;28;968;-68
2023/04/05 00:55:53;;;;;;;;;;;;;;;;;;351099;28;825;-68
2023/04/05 00:56:03;;;;;;;;;;;;;;;;;;349924;28;972;-66
2023/04/05 00:56:14;;;;;;;;;;;;;;;;;;349978;28;1894;-70
2023/04/05 00:56:24;;;;;;;;;;;;;;;;;;350028;28;778;-69
2023/04/05 00:56:35;;;;;;;;;;;;;;;;;;350008;28;810;-68
2023/04/05 00:56:46;;;;;;;;;;;;;;;;;;350045;28;885;-68
2023/04/05 00:56:58;;;;;;;;;;;;;;;;;;350035;28;917;-67
2023/04/05 00:57:25;;;;;;;;;;;;;;;;;;350042;28;940;-67
2023/04/05 00:57:38;;;;;;;;;;;;;;;;;;350036;28;1004;-63
2023/04/05 00:57:49;;;;;;;;;;;;;;;;;;350037;28;813;-70
2023/04/05 00:57:59;;;;;;;;;;;;;;;;;;350019;28;818;-66
2023/04/05 00:58:10;;;;;;;;;;;;;;;;;;350032;28;873;-68
2023/04/05 00:58:21;;;;;;;;;;;;;;;;;;350077;28;841;-67
2023/04/05 00:58:32;;;;;;;;;;;;;;;;;;350035;28;854;-69
2023/04/05 00:58:43;;;;;;;;;;;;;;;;;;350046;28;988;-68
2023/04/05 00:58:53;;;;;;;;;;;;;;;;;;350046;28;932;-69
2023/04/05 00:59:03;;;;;;;;;;;;;;;;;;350050;28;913;-66
2023/04/05 00:59:14;;;;;;;;;;;;;;;;;;350035;28;973;-66
2023/04/05 00:59:30;;;;;;;;;;;;;;;;;;350011;28;925;-67
2023/04/05 00:59:40;;;;;;;;;;;;;;;;;;350040;28;972;-62
2023/04/05 00:59:51;;;;;;;;;;;;;;;;;;348561;28;833;-63
2023/04/05 01:00:08;;;;;;;;;;;;;;;;;;348545;28;864;-64
2023/04/05 01:00:19;;;;;;;;;;;;;;;;;;348519;28;814;-69
2023/04/05 01:00:30;;;;;;;;;;;;;;;;;;348582;28;985;-67
2023/04/05 01:00:41;;;;;;;;;;;;;;;;;;348600;28;814;-68
2023/04/05 01:01:15;;;;;;;;;;;;;;;;;;348580;28;917;-68
2023/04/05 01:01:26;;;;;;;;;;;;;;;;;;345728;28;980;-64
2023/04/05 01:01:39;;;;;;;;;;;;;;;;;;345726;28;1064;-68
2023/04/05 01:01:54;;;;;;;;;;;;;;;;;;346788;28;925;-66
2023/04/05 01:02:07;;;;;;;;;;;;;;;;;;347167;28;900;-66
2023/04/05 01:02:24;;;;;;;;;;;;;;;;;;347161;28;814;-64
2023/04/05 01:02:44;;;;;;;;;;;;;;;;;;347118;28;969;-68
2023/04/05 01:03:00;;;;;;;;;;;;;;;;;;347188;28;786;-68
2023/04/05 01:03:12;;;;;;;;;;;;;;;;;;347095;28;858;-66
2023/04/05 01:03:26;;;;;;;;;;;;;;;;;;347121;28;877;-69
2023/04/05 01:03:37;;;;;;;;;;;;;;;;;;347109;28;980;-66
2023/04/05 01:03:55;;;;;;;;;;;;;;;;;;347122;28;933;-67
2023/04/05 01:04:06;;;;;;;;;;;;;;;;;;347116;28;942;-69
2023/04/05 01:04:20;;;;;;;;;;;;;;;;;;347177;28;853;-66
2023/04/05 01:04:32;;;;;;;;;;;;;;;;;;347183;28;929;-68
2023/04/05 01:04:48;;;;;;;;;;;;;;;;;;347114;28;928;-68
2023/04/05 01:05:08;;;;;;;;;;;;;;;;;;347080;28;1114;-65
2023/04/05 01:05:39;;;;;;;;;;;;;;;;;;347163;28;814;-66
2023/04/05 01:05:52;;;;;;;;;;;;;;;;;;341712;29;982;-70
2023/04/05 01:06:06;;;;;;;;;;;;;;;;;;341768;29;925;-67
2023/04/05 01:06:31;;;;;;;;;;;;;;;;;;341752;29;926;-68
2023/04/05 01:07:41;;;;;;;;;;;;;;;;;;340354;29;982;-66
2023/04/05 01:08:12;;;;;;;;;;;;;;;;;;340424;29;1033;-66
2023/04/05 01:08:42;;;;;;;;;;;;;;;;;;339970;29;1666;-68
2023/04/05 01:09:11;;;;;;;;;;;;;;;;;;336492;29;990;-68
2023/04/05 01:09:32;;;;;;;;;;;;;;;;;;337015;29;812;-63
2023/04/05 01:10:04;;;;;;;;;;;;;;;;;;337810;29;998;-66
2023/04/05 01:10:16;;;;;;;;;;;;;;;;;;337829;29;1034;-66
2023/04/05 01:10:59;;;;;;;;;;;;;;;;;;337876;29;860;-66
2023/04/05 01:11:11;;;;;;;;;;;;;;;;;;337777;29;989;-66
2023/04/05 01:11:22;;;;;;;;;;;;;;;;;;337874;29;825;-65
2023/04/05 01:11:32;;;;;;;;;;;;;;;;;;337823;29;947;-65
2023/04/05 01:11:44;;;;;;;;;;;;;;;;;;337746;29;1157;-64
2023/04/05 01:11:56;;;;;;;;;;;;;;;;;;337825;29;918;-65
2023/04/05 01:12:08;;;;;;;;;;;;;;;;;;337894;29;816;-63
2023/04/05 01:12:19;;;;;;;;;;;;;;;;;;337796;29;910;-61
2023/04/05 01:12:32;;;;;;;;;;;;;;;;;;337808;29;963;-62
2023/04/05 01:12:43;;;;;;;;;;;;;;;;;;337883;29;804;-63
2023/04/05 01:12:53;;;;;;;;;;;;;;;;;;337830;29;888;-63
2023/04/05 01:13:05;;;;;;;;;;;;;;;;;;337777;29;808;-62
2023/04/05 01:13:16;;;;;;;;;;;;;;;;;;337844;29;909;-61
2023/04/05 01:13:28;;;;;;;;;;;;;;;;;;337696;29;705;-63
2023/04/05 01:13:38;;;;;;;;;;;;;;;;;;337868;29;832;-62
2023/04/05 01:13:49;;;;;;;;;;;;;;;;;;337790;29;1416;-61
2023/04/05 01:14:00;;;;;;;;;;;;;;;;;;337819;29;848;-61
2023/04/05 01:14:10;;;;;;;;;;;;;;;;;;337732;29;991;-63
2023/04/05 01:14:21;;;;;;;;;;;;;;;;;;337833;29;963;-64
2023/04/05 01:14:32;;;;;;;;;;;;;;;;;;337806;29;907;-62
2023/04/05 01:14:49;;;;;;;;;;;;;;;;;;337837;29;926;-64
2023/04/05 01:15:00;;;;;;;;;;;;;;;;;;337814;29;981;-65
2023/04/05 01:15:11;;;;;;;;;;;;;;;;;;337830;29;903;-63
2023/04/05 01:15:21;;;;;;;;;;;;;;;;;;337827;29;808;-63
2023/04/05 01:15:32;;;;;;;;;;;;;;;;;;337786;29;900;-65
2023/04/05 01:15:42;;;;;;;;;;;;;;;;;;337816;29;919;-65
2023/04/05 01:15:53;;;;;;;;;;;;;;;;;;337824;29;911;-62
2023/04/05 01:16:03;;;;;;;;;;;;;;;;;;337802;29;970;-66
2023/04/05 01:16:14;;;;;;;;;;;;;;;;;;337711;29;1966;-61
2023/04/05 01:16:25;;;;;;;;;;;;;;;;;;337793;29;919;-63
2023/04/05 01:16:35;;;;;;;;;;;;;;;;;;337716;29;1448;-63
2023/04/05 01:16:48;;;;;;;;;;;;;;;;;;337684;29;1189;-62
2023/04/05 01:16:58;;;;;;;;;;;;;;;;;;337776;29;935;-62
2023/04/05 01:17:09;;;;;;;;;;;;;;;;;;337811;29;1293;-62
2023/04/05 01:17:21;;;;;;;;;;;;;;;;;;337779;29;891;-65
2023/04/05 01:17:35;;;;;;;;;;;;;;;;;;337857;29;916;-66
2023/04/05 01:17:47;;;;;;;;;;;;;;;;;;337825;29;879;-63
2023/04/05 01:18:00;;;;;;;;;;;;;;;;;;337834;29;934;-65
2023/04/05 01:18:12;;;;;;;;;;;;;;;;;;337850;29;816;-63
2023/04/05 01:18:23;;;;;;;;;;;;;;;;;;337802;29;927;-65
2023/04/05 01:18:35;;;;;;;;;;;;;;;;;;337837;29;975;-62
2023/04/05 01:18:46;;;;;;;;;;;;;;;;;;337853;29;1005;-62
2023/04/05 01:18:57;;;;;;;;;;;;;;;;;;337823;29;926;-62
2023/04/05 01:19:08;;;;;;;;;;;;;;;;;;336541;29;1015;-62
2023/04/05 01:19:19;;;;;;;;;;;;;;;;;;336528;29;989;-64
2023/04/05 01:19:30;;;;;;;;;;;;;;;;;;336525;29;963;-63
2023/04/05 01:19:46;;;;;;;;;;;;;;;;;;336455;29;963;-64
2023/04/05 01:19:57;;;;;;;;;;;;;;;;;;336544;29;808;-61
2023/04/05 01:20:09;;;;;;;;;;;;;;;;;;336480;29;1029;-65
2023/04/05 01:20:24;;;;;;;;;;;;;;;;;;336509;29;931;-63
2023/04/05 01:20:39;;;;;;;;;;;;;;;;;;336530;29;911;-61
2023/04/05 01:21:06;;;;;;;;;;;;;;;;;;336490;29;963;-61
2023/04/05 01:21:42;;;;;;;;;;;;;;;;;;337792;29;1025;-64
2023/04/05 01:22:14;;;;;;;;;;;;;;;;;;336821;29;963;-64
2023/04/05 01:22:43;;;;;;;;;;;;;;;;;;337833;29;907;-65
2023/04/05 01:23:15;;;;;;;;;;;;;;;;;;337751;29;848;-63
2023/04/05 01:23:46;;;;;;;;;;;;;;;;;;337823;29;851;-65
2023/04/05 01:24:16;;;;;;;;;;;;;;;;;;336498;29;1175;-62
2023/04/05 01:24:45;;;;;;;;;;;;;;;;;;332725;29;934;-62
2023/04/05 01:25:13;;;;;;;;;;;;;;;;;;332679;29;817;-62
2023/04/05 01:25:49;;;;;;;;;;;;;;;;;;332740;29;789;-62
2023/04/05 01:26:26;;;;;;;;;;;;;;;;;;331407;29;1003;-61
2023/04/05 01:26:55;;;;;;;;;;;;;;;;;;328887;30;1628;-62
2023/04/05 01:27:26;;;;;;;;;;;;;;;;;;329001;30;920;-64
2023/04/05 01:28:02;;;;;;;;;;;;;;;;;;328906;30;877;-61
2023/04/05 01:28:31;;;;;;;;;;;;;;;;;;328916;30;1106;-62
2023/04/05 01:29:06;;;;;;;;;;;;;;;;;;328946;30;988;-63
2023/04/05 01:29:39;;;;;;;;;;;;;;;;;;325358;30;869;-64
2023/04/05 01:29:53;;;;;;;;;;;;;;;;;;325124;30;1318;-63
2023/04/05 01:30:16;;;;;;;;;;;;;;;;;;325323;30;980;-64
2023/04/05 01:30:41;;;;;;;;;;;;;;;;;;324738;30;1448;-63
2023/04/05 01:30:57;;;;;;;;;;;;;;;;;;324793;30;832;-62
2023/04/05 01:31:14;;;;;;;;;;;;;;;;;;325278;30;961;-63
2023/04/05 01:31:45;;;;;;;;;;;;;;;;;;325299;30;795;-65
2023/04/05 01:38:50;;;;;;;;;;;;;;;;;;352630;27;1350;-59
2023/04/05 01:39:01;;;;;;;;;;;;;;;;;;352547;28;1151;-62
2023/04/05 01:39:13;;;;;;;;;;;;;;;;;;352542;28;866;-63
2023/04/05 01:39:24;;;;;;;;;;;;;;;;;;352585;28;904;-62
2023/04/05 01:39:35;;;;;;;;;;;;;;;;;;352610;28;988;-64
2023/04/05 01:39:47;;;;;;;;;;;;;;;;;;352583;28;794;-63
2023/04/05 01:39:58;;;;;;;;;;;;;;;;;;353791;28;873;-65
2023/04/05 01:40:09;;;;;;;;;;;;;;;;;;353839;28;1174;-66
2023/04/05 01:40:20;;;;;;;;;;;;;;;;;;352462;28;968;-67
2023/04/05 01:40:31;;;;;;;;;;;;;;;;;;352475;28;849;-62
2023/04/05 01:40:42;;;;;;;;;;;;;;;;;;352515;28;861;-65
2023/04/05 01:40:53;;;;;;;;;;;;;;;;;;352005;28;1575;-60
2023/04/05 01:41:03;;;;;;;;;;;;;;;;;;350860;28;829;-60
2023/04/05 01:41:14;;;;;;;;;;;;;;;;;;350829;28;1614;-63
2023/04/05 01:41:26;;;;;;;;;;;;;;;;;;351003;28;1040;-64
2023/04/05 01:41:37;;;;;;;;;;;;;;;;;;351068;28;984;-62
2023/04/05 01:41:48;;;;;;;;;;;;;;;;;;351086;28;928;-65
2023/04/05 01:42:00;;;;;;;;;;;;;;;;;;350978;28;1005;-60
2023/04/05 01:42:10;;;;;;;;;;;;;;;;;;351151;28;861;-60
2023/04/05 01:42:24;;;;;;;;;;;;;;;;;;351225;28;877;-61
2023/04/05 01:42:34;;;;;;;;;;;;;;;;;;351191;28;933;-69
2023/04/05 01:42:47;;;;;;;;;;;;;;;;;;351233;28;763;-64
2023/04/05 01:43:01;;;;;;;;;;;;;;;;;;351144;28;881;-62
2023/04/05 01:43:14;;;;;;;;;;;;;;;;;;351013;28;632;-64
2023/04/05 01:43:25;;;;;;;;;;;;;;;;;;351114;28;822;-62
2023/04/05 01:44:06;;;;;;;;;;;;;;;;;;349621;28;1099;-60